Time;durP1;ratioP1;P1;durP2;ratioP2;P2;SDS_P1;SDS_P2;PMS_P1;PMS_P2;Temp;Humidity;BMP_temperature;BMP_pressure;BME280_temperature;BME280_humidity;BME280_pressure;Samples;Min_cycle;Max_cycle;Signal;HPM_P1;HPM_P2
2022/06/27 00:01:17;;;;;;;;;;;;;;;24.06;70.38;100856.03;5054149;28;4347;-61
2022/06/27 00:03:44;;;;;;;;;;;;;;;24.04;70.60;100860.31;5054784;28;4234;-60
2022/06/27 00:06:11;;;;;;;;;;;;;;;24.04;70.47;100853.81;5057495;28;4515;-60
2022/06/27 00:08:37;;;;;;;;;;;;;;;24.04;70.75;100859.59;5055905;28;4126;-61
2022/06/27 00:11:04;;;;;;;;;;;;;;;24.02;70.88;100862.41;5055296;28;5259;-61
2022/06/27 00:13:30;;;;;;;;;;;;;;;24.03;70.94;100869.69;5053045;28;4211;-61
2022/06/27 00:15:56;;;;;;;;;;;;;;;24.03;71.23;100866.78;5057637;28;4165;-61
2022/06/27 00:18:30;;;;;;;;;;;;;;;24.02;71.02;100868.19;5051522;28;5446;-60
2022/06/27 00:20:57;;;;;;;;;;;;;;;24.00;71.14;100865.25;5052794;28;5313;-61
2022/06/27 00:23:23;;;;;;;;;;;;;;;24.00;70.78;100868.13;5055767;28;4380;-60
2022/06/27 00:25:49;;;;;;;;;;;;;;;23.97;70.93;100878.16;5056132;28;4230;-61
2022/06/27 00:28:16;;;;;;;;;;;;;;;23.97;70.77;100878.16;5050418;28;5474;-60
2022/06/27 00:30:42;;;;;;;;;;;;;;;23.96;70.63;100871.66;5055151;28;4081;-61
2022/06/27 00:33:09;;;;;;;;;;;;;;;23.94;70.79;100873.75;5055112;28;4065;-61
2022/06/27 00:35:35;;;;;;;;;;;;;;;23.93;70.52;100878.03;5056232;28;4492;-61
2022/06/27 00:38:01;;;;;;;;;;;;;;;23.93;70.19;100878.03;5055016;28;4278;-60
2022/06/27 00:40:28;;;;;;;;;;;;;;;23.92;70.22;100870.78;5060987;28;4319;-61
2022/06/27 00:42:54;;;;;;;;;;;;;;;23.91;70.09;100875.81;5055138;28;4185;-61
2022/06/27 00:45:21;;;;;;;;;;;;;;;23.88;69.67;100873.53;5054969;28;5532;-61
2022/06/27 00:47:47;;;;;;;;;;;;;;;23.86;70.01;100880.00;5055616;28;4072;-61
2022/06/27 00:50:14;;;;;;;;;;;;;;;23.87;69.89;100883.63;5055893;28;4051;-61
2022/06/27 00:52:40;;;;;;;;;;;;;;;23.86;69.75;100880.00;5062718;28;4256;-61
2022/06/27 00:55:07;;;;;;;;;;;;;;;23.87;69.67;100872.03;5038811;28;4308;-60
2022/06/27 00:57:33;;;;;;;;;;;;;;;23.86;69.73;100856.13;5054783;28;4191;-61
2022/06/27 01:00:00;;;;;;;;;;;;;;;23.86;69.84;100867.69;5054036;28;4217;-60
2022/06/27 01:02:26;;;;;;;;;;;;;;;23.85;70.09;100861.16;5058258;28;5363;-61
2022/06/27 01:04:53;;;;;;;;;;;;;;;23.83;70.05;100858.94;5058564;28;4258;-60
2022/06/27 01:07:19;;;;;;;;;;;;;;;23.83;69.97;100858.94;5053812;28;4102;-61
2022/06/27 01:09:46;;;;;;;;;;;;;;;23.83;69.52;100869.78;5055886;28;4177;-61
2022/06/27 01:12:12;;;;;;;;;;;;;;;23.82;69.51;100869.03;5053883;28;4186;-61
2022/06/27 01:14:38;;;;;;;;;;;;;;;23.82;69.67;100874.06;5054471;28;4232;-61
2022/06/27 01:17:05;;;;;;;;;;;;;;;23.78;69.47;100868.91;5053615;28;5267;-61
2022/06/27 01:19:31;;;;;;;;;;;;;;;23.79;69.70;100864.59;5035183;28;4175;-61
2022/06/27 01:21:58;;;;;;;;;;;;;;;23.80;69.60;100868.22;5051778;28;4255;-61
2022/06/27 01:24:25;;;;;;;;;;;;;;;23.78;69.39;100863.13;5056965;28;5180;-61
2022/06/27 01:26:52;;;;;;;;;;;;;;;23.78;69.43;100862.38;5051846;28;5117;-61
2022/06/27 01:29:19;;;;;;;;;;;;;;;23.77;69.30;100866.69;5032587;28;4252;-61
2022/06/27 01:31:46;;;;;;;;;;;;;;;23.76;69.32;100871.72;5042759;28;4223;-61
2022/06/27 01:34:12;;;;;;;;;;;;;;;23.76;69.19;100868.84;5051266;28;4284;-62
2022/06/27 01:36:44;;;;;;;;;;;;;;;23.75;69.03;100875.28;5061556;28;4238;-61
2022/06/27 01:39:16;;;;;;;;;;;;;;;23.74;69.00;100873.78;5050389;28;4190;-62
2022/06/27 01:41:43;;;;;;;;;;;;;;;23.74;68.70;100870.91;5050633;28;4266;-61
2022/06/27 01:44:10;;;;;;;;;;;;;;;23.71;68.64;100870.09;5052282;28;4201;-61
2022/06/27 01:46:49;;;;;;;;;;;;;;;23.72;69.02;100868.66;5035301;28;5386;-61
2022/06/27 01:49:17;;;;;;;;;;;;;;;23.69;69.27;100872.19;5039883;28;4241;-61
2022/06/27 01:51:44;;;;;;;;;;;;;;;23.68;69.27;100859.88;5039779;28;4304;-61
2022/06/27 01:54:10;;;;;;;;;;;;;;;23.69;69.30;100864.25;5040805;28;4218;-61
2022/06/27 01:56:38;;;;;;;;;;;;;;;23.69;69.35;100864.25;5034988;28;4156;-61
2022/06/27 01:59:05;;;;;;;;;;;;;;;23.67;69.17;100872.84;5033598;28;4255;-61
2022/06/27 02:01:32;;;;;;;;;;;;;;;23.66;68.64;100880.03;5032911;28;5370;-61
2022/06/27 02:03:59;;;;;;;;;;;;;;;23.66;68.41;100882.91;5038438;28;4095;-61
2022/06/27 02:06:26;;;;;;;;;;;;;;;23.65;68.71;100875.66;5036454;28;5474;-61
2022/06/27 02:08:53;;;;;;;;;;;;;;;23.64;68.62;100877.09;5040995;28;4301;-60
2022/06/27 02:11:19;;;;;;;;;;;;;;;23.62;68.49;100877.03;5033854;28;4115;-61
2022/06/27 02:13:51;;;;;;;;;;;;;;;23.63;68.42;100875.59;5030836;28;4271;-61
2022/06/27 02:16:19;;;;;;;;;;;;;;;23.61;68.47;100867.59;5033982;28;4339;-61
2022/06/27 02:18:46;;;;;;;;;;;;;;;23.60;68.00;100879.84;5032954;28;4482;-61
2022/06/27 02:21:16;;;;;;;;;;;;;;;23.60;68.25;100871.16;5032543;28;4392;-61
2022/06/27 02:23:42;;;;;;;;;;;;;;;23.60;68.39;100876.94;5028053;28;4164;-61
2022/06/27 02:26:09;;;;;;;;;;;;;;;23.59;68.08;100882.00;5028291;28;4390;-61
2022/06/27 02:28:35;;;;;;;;;;;;;;;23.59;68.24;100881.25;5063779;28;4085;-61
2022/06/27 02:31:02;;;;;;;;;;;;;;;23.57;68.23;100881.16;5037672;28;4148;-61
2022/06/27 02:33:32;;;;;;;;;;;;;;;23.56;68.18;100889.09;5034180;28;4187;-61
2022/06/27 02:35:59;;;;;;;;;;;;;;;23.56;68.02;100888.38;5032828;28;4519;-61
2022/06/27 02:38:27;;;;;;;;;;;;;;;23.54;67.80;100896.97;5031163;28;4161;-61
2022/06/27 02:40:54;;;;;;;;;;;;;;;23.54;67.95;100902.75;5015190;28;4243;-61
2022/06/27 02:43:22;;;;;;;;;;;;;;;23.54;68.34;100908.53;5045382;28;4218;-61
2022/06/27 02:45:49;;;;;;;;;;;;;;;23.52;68.64;100909.19;5038826;28;4184;-61
2022/06/27 02:48:16;;;;;;;;;;;;;;;23.55;68.47;100904.97;5019307;28;4265;-61
2022/06/27 02:50:42;;;;;;;;;;;;;;;23.57;68.69;100901.41;5038040;28;4200;-61
2022/06/27 02:53:09;;;;;;;;;;;;;;;23.58;68.77;100914.47;5008109;28;4261;-61
2022/06/27 02:55:40;;;;;;;;;;;;;;;23.56;68.58;100905.72;5037718;28;5345;-61
2022/06/27 02:58:12;;;;;;;;;;;;;;;23.56;68.87;100911.50;5040772;28;4191;-61
2022/06/27 03:00:39;;;;;;;;;;;;;;;23.56;69.02;100911.50;5054292;28;5607;-61
2022/06/27 03:03:07;;;;;;;;;;;;;;;23.55;69.05;100910.75;5039269;28;4168;-61
2022/06/27 03:05:56;;;;;;;;;;;;;;;23.55;69.08;100904.25;5054230;28;4323;-61
2022/06/27 03:08:22;;;;;;;;;;;;;;;23.55;69.38;100904.25;5062512;28;4181;-61
2022/06/27 03:10:49;;;;;;;;;;;;;;;23.55;69.29;100898.47;5058755;28;4146;-61
2022/06/27 03:13:15;;;;;;;;;;;;;;;23.54;69.38;100908.53;5054332;28;5501;-61
2022/06/27 03:15:42;;;;;;;;;;;;;;;23.54;69.41;100899.88;5057455;28;4373;-61
2022/06/27 03:18:10;;;;;;;;;;;;;;;23.48;69.44;100905.44;5053597;28;4264;-61
2022/06/27 03:20:55;;;;;;;;;;;;;;;23.44;69.98;100911.81;5054686;28;4294;-61
2022/06/27 03:23:34;;;;;;;;;;;;;;;23.46;69.77;100916.94;5055644;28;4183;-61
2022/06/27 03:26:01;;;;;;;;;;;;;;;23.45;70.00;100918.34;5055173;28;4431;-61
2022/06/27 03:28:33;;;;;;;;;;;;;;;23.46;69.71;100909.00;5055567;28;4262;-61
2022/06/27 03:31:01;;;;;;;;;;;;;;;23.47;69.69;100909.75;5053051;28;4357;-61
2022/06/27 03:33:32;;;;;;;;;;;;;;;23.48;70.00;100917.00;5063459;28;4184;-61
2022/06/27 03:36:25;;;;;;;;;;;;;;;23.47;70.27;100915.53;5052742;28;4258;-61
2022/06/27 03:38:53;;;;;;;;;;;;;;;23.48;70.07;100914.09;5056651;28;4214;-61
2022/06/27 03:41:20;;;;;;;;;;;;;;;23.47;70.56;100921.31;5053503;28;4178;-61
2022/06/27 03:43:48;;;;;;;;;;;;;;;23.47;70.39;100918.41;5059076;28;6482;-61
2022/06/27 03:46:14;;;;;;;;;;;;;;;23.48;70.64;100925.66;5056297;28;5352;-61
2022/06/27 03:51:45;;;;;;;;;;;;;;;23.49;70.78;100912.69;5054892;28;4194;-61
2022/06/27 03:54:11;;;;;;;;;;;;;;;23.49;71.03;100915.59;5051717;28;5355;-62
2022/06/27 03:56:39;;;;;;;;;;;;;;;23.50;70.96;100914.16;5054828;28;5349;-61
2022/06/27 03:59:05;;;;;;;;;;;;;;;23.50;71.56;100908.38;5054781;28;5462;-61
2022/06/27 04:01:31;;;;;;;;;;;;;;;23.51;71.52;100909.88;5053529;28;5510;-61
2022/06/27 04:03:58;;;;;;;;;;;;;;;23.51;71.37;100909.88;5057640;28;4244;-61
2022/06/27 04:06:26;;;;;;;;;;;;;;;23.50;71.69;100908.38;5055644;28;5314;-61
2022/06/27 04:08:52;;;;;;;;;;;;;;;23.52;71.86;100911.34;5057339;28;5287;-61
2022/06/27 04:11:18;;;;;;;;;;;;;;;23.52;71.52;100914.25;5067023;28;4229;-61
2022/06/27 04:13:49;;;;;;;;;;;;;;;23.12;75.24;100911.44;5060687;28;4237;-63
2022/06/27 04:16:41;;;;;;;;;;;;;;;22.88;77.27;100900.41;5055174;28;4198;-60
2022/06/27 04:19:40;;;;;;;;;;;;;;;22.86;78.37;100906.16;5056333;28;4489;-59
2022/06/27 04:22:29;;;;;;;;;;;;;;;22.76;78.95;100900.72;5036897;28;5290;-61
2022/06/27 04:24:56;;;;;;;;;;;;;;;22.77;78.76;100895.72;5055646;28;4908;-60
2022/06/27 04:27:37;;;;;;;;;;;;;;;22.69;79.36;100895.41;5056607;28;4337;-60
2022/06/27 04:30:04;;;;;;;;;;;;;;;22.71;78.92;100881.03;5051363;28;4574;-60
2022/06/27 04:32:30;;;;;;;;;;;;;;;22.70;78.93;100885.31;5057414;28;4205;-62
2022/06/27 04:34:57;;;;;;;;;;;;;;;22.66;78.70;100882.31;5056968;28;4254;-61
2022/06/27 04:37:23;;;;;;;;;;;;;;;22.77;80.27;100884.16;5061174;28;4277;-68
2022/06/27 04:40:19;;;;;;;;;;;;;;;22.73;79.49;100881.13;5053467;28;5301;-69
2022/06/27 04:42:49;;;;;;;;;;;;;;;22.71;79.27;100875.25;5067733;28;4291;-69
2022/06/27 04:45:15;;;;;;;;;;;;;;;22.75;79.11;100876.16;5070506;28;4958;-69
2022/06/27 04:47:47;;;;;;;;;;;;;;;22.87;78.82;100875.84;5050554;28;5500;-64
2022/06/27 04:50:16;;;;;;;;;;;;;;;22.96;77.94;100874.00;5052955;28;4220;-64
2022/06/27 04:52:42;;;;;;;;;;;;;;;23.04;77.31;100882.25;5049910;28;4335;-64
2022/06/27 04:55:09;;;;;;;;;;;;;;;23.12;77.00;100883.28;5060363;28;4207;-64
2022/06/27 04:57:36;;;;;;;;;;;;;;;23.19;75.74;100872.69;5053985;28;4708;-64
2022/06/27 05:00:03;;;;;;;;;;;;;;;23.23;76.03;100874.94;5056834;28;4192;-64
2022/06/27 05:02:55;;;;;;;;;;;;;;;23.26;76.27;100880.16;5056420;28;4153;-63
2022/06/27 05:05:22;;;;;;;;;;;;;;;23.30;75.66;100874.50;5061407;28;4259;-63
2022/06/27 05:07:49;;;;;;;;;;;;;;;23.31;76.44;100875.97;5054736;28;4208;-64
2022/06/27 05:10:15;;;;;;;;;;;;;;;23.34;77.17;100877.53;5054144;28;4294;-64
2022/06/27 05:12:42;;;;;;;;;;;;;;;23.34;76.59;100880.44;5056880;28;4202;-64
2022/06/27 05:15:09;;;;;;;;;;;;;;;23.38;76.49;100885.59;5054972;28;4291;-63
2022/06/27 05:17:36;;;;;;;;;;;;;;;23.31;76.64;100881.03;5055585;28;4148;-66
2022/06/27 05:20:05;;;;;;;;;;;;;;;23.33;77.06;100881.81;5054693;28;5287;-64
2022/06/27 05:22:31;;;;;;;;;;;;;;;23.35;76.01;100887.69;5055497;28;4046;-63
2022/06/27 05:24:58;;;;;;;;;;;;;;;23.39;76.50;100887.81;5062037;28;4211;-64
2022/06/27 05:27:24;;;;;;;;;;;;;;;23.40;75.98;100877.72;5050395;28;4077;-63
2022/06/27 05:29:51;;;;;;;;;;;;;;;23.45;75.64;100883.66;5066850;28;4247;-72
2022/06/27 05:32:18;;;;;;;;;;;;;;;23.39;76.32;100887.09;5053152;28;5075;-70
2022/06/27 05:34:45;;;;;;;;;;;;;;;23.31;76.70;100886.81;5054505;28;4349;-62
2022/06/27 05:37:11;;;;;;;;;;;;;;;23.40;76.76;100883.50;5055405;28;4191;-63
2022/06/27 05:39:40;;;;;;;;;;;;;;;23.43;75.39;100881.44;5055544;28;4217;-61
2022/06/27 05:42:06;;;;;;;;;;;;;;;23.41;76.97;100884.28;5050248;28;4259;-62
2022/06/27 05:44:33;;;;;;;;;;;;;;;23.40;76.56;100883.50;5060189;28;6214;-65
2022/06/27 05:47:00;;;;;;;;;;;;;;;23.40;78.66;100883.50;5051342;28;4079;-67
2022/06/27 05:49:44;;;;;;;;;;;;;;;23.53;80.37;100889.72;5069517;28;5368;-64
2022/06/27 05:52:11;;;;;;;;;;;;;;;23.47;79.13;100892.41;5059930;28;4166;-64
2022/06/27 05:54:38;;;;;;;;;;;;;;;23.54;79.89;100889.03;5051589;28;4154;-64
2022/06/27 05:57:05;;;;;;;;;;;;;;;23.49;80.51;100889.59;5054544;28;5246;-62
2022/06/27 05:59:33;;;;;;;;;;;;;;;23.52;78.31;100891.13;5070918;28;4213;-62
2022/06/27 06:02:01;;;;;;;;;;;;;;;23.58;77.54;100891.34;5053873;28;4242;-63
2022/06/27 06:04:31;;;;;;;;;;;;;;;23.61;76.92;100895.75;5048597;28;5245;-62
2022/06/27 06:06:59;;;;;;;;;;;;;;;23.61;76.69;100892.88;5051578;28;4201;-62
2022/06/27 06:09:26;;;;;;;;;;;;;;;23.62;75.96;100897.25;5053763;28;4195;-62
2022/06/27 06:11:53;;;;;;;;;;;;;;;23.62;75.87;100897.25;5070392;28;4207;-62
2022/06/27 06:14:21;;;;;;;;;;;;;;;23.65;77.88;100901.69;5054012;28;5466;-62
2022/06/27 06:16:49;;;;;;;;;;;;;;;23.67;77.25;100904.66;5055829;28;5311;-63
2022/06/27 06:19:16;;;;;;;;;;;;;;;23.70;79.14;100903.28;5047965;28;5332;-63
2022/06/27 06:21:42;;;;;;;;;;;;;;;23.68;77.09;100900.34;5060454;28;4261;-63
2022/06/27 06:24:09;;;;;;;;;;;;;;;23.70;76.20;100897.50;5059171;28;4234;-63
2022/06/27 06:26:36;;;;;;;;;;;;;;;23.75;75.73;100899.16;5051665;28;4245;-63
2022/06/27 06:29:12;;;;;;;;;;;;;;;23.78;75.12;100897.81;5050613;28;4074;-63
2022/06/27 06:31:41;;;;;;;;;;;;;;;23.80;73.83;100900.78;5053248;28;5458;-63
2022/06/27 06:34:09;;;;;;;;;;;;;;;23.83;75.03;100892.91;5050286;28;4651;-63
2022/06/27 06:36:37;;;;;;;;;;;;;;;23.81;74.56;100893.56;5049430;28;4203;-63
2022/06/27 06:39:03;;;;;;;;;;;;;;;23.81;73.25;100887.78;5054454;28;4199;-63
2022/06/27 06:41:30;;;;;;;;;;;;;;;23.83;72.98;100893.63;5051572;28;5870;-63
2022/06/27 06:43:59;;;;;;;;;;;;;;;23.87;72.99;100886.50;5057653;28;4237;-63
2022/06/27 06:46:48;;;;;;;;;;;;;;;23.86;72.64;100885.03;5054072;28;5504;-67
2022/06/27 06:49:22;;;;;;;;;;;;;;;23.86;72.87;100882.16;5052849;28;4240;-67
2022/06/27 06:51:49;;;;;;;;;;;;;;;23.86;72.91;100873.47;5057419;28;4009;-68
2022/06/27 06:54:20;;;;;;;;;;;;;;;23.85;72.86;100877.78;5060384;28;4208;-63
2022/06/27 06:56:58;;;;;;;;;;;;;;;23.83;72.69;100887.13;5038737;28;4068;-64
2022/06/27 06:59:25;;;;;;;;;;;;;;;23.82;72.65;100877.72;5054632;28;4151;-64
2022/06/27 07:01:53;;;;;;;;;;;;;;;23.82;72.85;100874.81;5058865;28;5586;-64
2022/06/27 07:04:19;;;;;;;;;;;;;;;23.82;72.71;100879.84;5058561;28;4230;-64
2022/06/27 07:06:46;;;;;;;;;;;;;;;23.80;72.78;100877.66;5059391;28;4224;-63
2022/06/27 07:09:13;;;;;;;;;;;;;;;23.82;72.61;100871.94;5058377;28;5457;-64
2022/06/27 07:11:40;;;;;;;;;;;;;;;23.80;72.78;100874.75;5059991;28;4230;-64
2022/06/27 07:14:07;;;;;;;;;;;;;;;23.79;72.67;100876.16;5056964;28;5217;-64
2022/06/27 07:16:33;;;;;;;;;;;;;;;23.81;72.28;100878.38;5057421;28;6514;-64
2022/06/27 07:19:00;;;;;;;;;;;;;;;23.81;72.30;100876.22;5058774;28;4129;-65
2022/06/27 07:21:28;;;;;;;;;;;;;;;23.81;72.12;100876.22;5057973;28;5460;-64
2022/06/27 07:23:55;;;;;;;;;;;;;;;23.81;72.33;100870.44;5059086;28;4167;-64
2022/06/27 07:26:22;;;;;;;;;;;;;;;23.83;72.05;100873.41;5056904;28;4264;-64
2022/06/27 07:28:48;;;;;;;;;;;;;;;23.83;71.87;100861.09;5059286;28;4258;-65
2022/06/27 07:31:14;;;;;;;;;;;;;;;23.83;71.77;100864.00;5056519;28;4267;-64
2022/06/27 07:33:41;;;;;;;;;;;;;;;23.86;71.51;100853.22;5056747;28;4230;-64
2022/06/27 07:36:26;;;;;;;;;;;;;;;23.86;71.77;100859.00;5058175;28;4234;-65
2022/06/27 07:38:54;;;;;;;;;;;;;;;23.86;71.52;100848.19;5057303;28;4162;-65
2022/06/27 07:41:21;;;;;;;;;;;;;;;23.85;71.18;100860.44;5058366;28;5309;-64
2022/06/27 07:43:47;;;;;;;;;;;;;;;23.86;71.35;100861.91;5056323;28;5555;-64
2022/06/27 07:46:15;;;;;;;;;;;;;;;23.87;71.05;100860.47;5056671;28;4317;-64
2022/06/27 07:48:42;;;;;;;;;;;;;;;23.87;71.30;100857.59;5057240;28;4272;-64
2022/06/27 07:51:08;;;;;;;;;;;;;;;23.87;71.01;100855.47;5057496;28;4211;-64
2022/06/27 07:53:35;;;;;;;;;;;;;;;23.87;70.89;100851.81;5054839;28;5235;-64
2022/06/27 07:56:03;;;;;;;;;;;;;;;23.86;71.07;100856.84;5057363;28;4197;-64
2022/06/27 07:58:38;;;;;;;;;;;;;;;23.86;70.91;100856.13;5057685;28;5391;-64
2022/06/27 08:01:06;;;;;;;;;;;;;;;23.87;70.80;100851.81;5058563;28;4035;-64
2022/06/27 08:03:44;;;;;;;;;;;;;;;23.87;71.13;100846.03;5056910;28;5077;-64
2022/06/27 08:06:23;;;;;;;;;;;;;;;23.87;70.89;100843.13;5056005;28;4177;-64
2022/06/27 08:08:51;;;;;;;;;;;;;;;23.90;70.58;100853.38;5057949;28;4164;-64
2022/06/27 08:11:24;;;;;;;;;;;;;;;23.90;70.67;100844.69;5057394;28;4207;-64
2022/06/27 08:13:52;;;;;;;;;;;;;;;23.89;70.62;100837.41;5056861;28;4032;-64
2022/06/27 08:16:20;;;;;;;;;;;;;;;23.89;70.58;100832.38;5056788;28;4213;-64
2022/06/27 08:18:47;;;;;;;;;;;;;;;23.91;70.31;100846.16;5058423;28;4453;-64
2022/06/27 08:21:14;;;;;;;;;;;;;;;23.90;70.36;100836.00;5055610;28;5430;-64
2022/06/27 08:23:40;;;;;;;;;;;;;;;23.87;70.44;100834.44;5058630;28;4241;-64
2022/06/27 08:26:07;;;;;;;;;;;;;;;23.83;70.57;100835.81;5054653;28;5495;-64
2022/06/27 08:28:37;;;;;;;;;;;;;;;23.90;70.18;100838.91;5057132;28;4170;-64
2022/06/27 08:31:05;;;;;;;;;;;;;;;23.92;70.05;100836.06;5055217;28;4154;-64
2022/06/27 08:33:32;;;;;;;;;;;;;;;23.92;69.88;100836.81;5053896;28;4490;-65
2022/06/27 08:35:58;;;;;;;;;;;;;;;23.92;70.24;100841.88;5057162;28;4257;-64
2022/06/27 08:38:25;;;;;;;;;;;;;;;23.93;69.93;100837.53;5055274;28;4169;-64
2022/06/27 08:40:52;;;;;;;;;;;;;;;23.93;70.00;100835.38;5056123;28;5424;-64
2022/06/27 08:43:18;;;;;;;;;;;;;;;23.92;70.01;100831.03;5056465;28;4223;-64
2022/06/27 08:45:46;;;;;;;;;;;;;;;23.93;69.74;100832.50;5055554;28;4268;-64
2022/06/27 08:48:13;;;;;;;;;;;;;;;23.93;69.84;100831.75;5055459;28;4216;-65
2022/06/27 08:50:39;;;;;;;;;;;;;;;23.93;70.06;100829.59;5055720;28;4183;-65
2022/06/27 08:53:05;;;;;;;;;;;;;;;23.93;70.17;100834.66;5056319;28;5481;-65
2022/06/27 08:55:33;;;;;;;;;;;;;;;23.92;69.84;100830.28;5055311;28;4189;-65
2022/06/27 08:58:04;;;;;;;;;;;;;;;23.93;69.89;100837.53;5055323;28;4226;-65
2022/06/27 09:00:32;;;;;;;;;;;;;;;23.94;69.97;100830.34;5055935;28;5251;-65
2022/06/27 09:02:58;;;;;;;;;;;;;;;23.94;69.83;100833.25;5056686;28;4214;-65
2022/06/27 09:05:26;;;;;;;;;;;;;;;23.94;69.77;100828.19;5055873;28;5466;-65
2022/06/27 09:07:53;;;;;;;;;;;;;;;23.93;69.81;100825.97;5056351;28;4139;-65
2022/06/27 09:10:32;;;;;;;;;;;;;;;23.94;69.61;100822.41;5055484;28;5536;-65
2022/06/27 09:13:06;;;;;;;;;;;;;;;23.94;69.67;100824.56;5056934;28;4119;-65
2022/06/27 09:15:48;;;;;;;;;;;;;;;23.95;69.73;100820.25;5055127;28;5231;-65
2022/06/27 09:18:35;;;;;;;;;;;;;;;23.96;69.51;100816.69;5056553;28;5387;-65
2022/06/27 09:21:05;;;;;;;;;;;;;;;23.97;69.40;100820.31;5056893;28;4210;-65
2022/06/27 09:23:41;;;;;;;;;;;;;;;23.99;69.51;100820.38;5054204;28;4162;-65
2022/06/27 09:26:12;;;;;;;;;;;;;;;23.97;69.57;100803.69;5055720;28;4350;-65
2022/06/27 09:28:48;;;;;;;;;;;;;;;23.99;69.46;100805.94;5055293;28;6250;-65
2022/06/27 09:31:30;;;;;;;;;;;;;;;23.99;69.53;100808.81;5056478;28;4226;-65
2022/06/27 09:34:12;;;;;;;;;;;;;;;23.97;69.26;100797.91;5056323;28;4299;-65
2022/06/27 09:36:39;;;;;;;;;;;;;;;23.99;69.28;100811.72;5056675;28;4161;-65
2022/06/27 09:39:07;;;;;;;;;;;;;;;23.99;69.24;100818.22;5056449;28;4169;-65
2022/06/27 09:41:33;;;;;;;;;;;;;;;24.01;69.12;100806.00;5055704;28;4259;-65
2022/06/27 09:44:04;;;;;;;;;;;;;;;24.00;69.01;100798.72;5056238;28;4411;-65
2022/06/27 09:46:35;;;;;;;;;;;;;;;24.00;69.06;100799.44;5056220;28;4176;-65
2022/06/27 09:49:03;;;;;;;;;;;;;;;24.00;68.92;100795.81;5055356;28;4128;-64
2022/06/27 09:51:30;;;;;;;;;;;;;;;24.02;69.05;100793.72;5055415;28;4474;-65
2022/06/27 09:54:00;;;;;;;;;;;;;;;24.02;68.94;100795.88;5053397;28;4202;-65
2022/06/27 09:56:26;;;;;;;;;;;;;;;24.03;69.02;100803.16;5052403;28;4200;-65
2022/06/27 09:58:52;;;;;;;;;;;;;;;24.03;68.77;100806.78;5054966;28;4567;-64
2022/06/27 10:01:37;;;;;;;;;;;;;;;24.03;68.81;100800.28;5053986;28;4519;-64
2022/06/27 10:04:04;;;;;;;;;;;;;;;24.03;68.92;100801.00;5056024;28;4143;-64
2022/06/27 10:06:30;;;;;;;;;;;;;;;24.05;68.77;100803.19;5055688;28;5412;-65
2022/06/27 10:08:57;;;;;;;;;;;;;;;24.04;68.86;100801.72;5055523;28;4294;-64
2022/06/27 10:11:23;;;;;;;;;;;;;;;24.04;68.73;100801.72;5054229;28;4168;-64
2022/06/27 10:14:08;;;;;;;;;;;;;;;24.05;68.66;100788.75;5056412;28;4446;-65
2022/06/27 10:16:49;;;;;;;;;;;;;;;24.04;68.90;100793.78;5056037;28;4372;-65
2022/06/27 10:19:15;;;;;;;;;;;;;;;24.06;68.43;100781.56;5059684;28;5279;-64
2022/06/27 10:21:42;;;;;;;;;;;;;;;24.05;68.69;100785.84;5059293;28;5486;-65
2022/06/27 10:24:21;;;;;;;;;;;;;;;24.07;68.46;100785.19;5060559;28;4027;-65
2022/06/27 10:26:48;;;;;;;;;;;;;;;24.07;68.44;100794.59;5059107;28;5255;-64
2022/06/27 10:29:26;;;;;;;;;;;;;;;24.07;68.35;100790.97;5060105;28;4150;-65
2022/06/27 10:31:52;;;;;;;;;;;;;;;24.08;68.27;100801.88;5060422;28;4153;-65
2022/06/27 10:34:37;;;;;;;;;;;;;;;24.06;68.39;100796.00;5058725;28;5491;-64
2022/06/27 10:37:19;;;;;;;;;;;;;;;24.08;68.63;100790.28;5058651;28;4206;-64
2022/06/27 10:39:45;;;;;;;;;;;;;;;24.08;68.21;100790.28;5059980;28;5444;-65
2022/06/27 10:42:43;;;;;;;;;;;;;;;24.08;68.38;100790.28;5059570;28;4225;-65
2022/06/27 10:45:28;;;;;;;;;;;;;;;24.09;68.25;100783.09;5059219;28;4178;-65
2022/06/27 10:47:55;;;;;;;;;;;;;;;24.09;68.37;100785.25;5059062;28;4347;-65
2022/06/27 10:50:22;;;;;;;;;;;;;;;24.10;68.22;100775.88;5058518;28;5445;-65
2022/06/27 10:52:48;;;;;;;;;;;;;;;24.10;68.08;100770.09;5059160;28;4187;-65
2022/06/27 10:55:19;;;;;;;;;;;;;;;24.10;68.07;100770.09;5059321;28;4517;-65
2022/06/27 10:57:46;;;;;;;;;;;;;;;24.09;67.96;100768.63;5056579;28;4131;-64
2022/06/27 11:00:32;;;;;;;;;;;;;;;24.10;67.92;100764.31;5059464;28;4213;-65
2022/06/27 11:02:59;;;;;;;;;;;;;;;24.11;67.87;100760.00;5059989;28;4225;-65
2022/06/27 11:05:26;;;;;;;;;;;;;;;24.11;68.08;100751.31;5057599;28;5505;-65
2022/06/27 11:07:53;;;;;;;;;;;;;;;24.12;67.92;100749.91;5058232;28;4231;-65
2022/06/27 11:10:22;;;;;;;;;;;;;;;24.14;67.87;100744.16;5057524;28;5297;-65
2022/06/27 11:12:48;;;;;;;;;;;;;;;24.14;67.90;100746.31;5058665;28;4201;-64
2022/06/27 11:15:15;;;;;;;;;;;;;;;24.13;67.78;100739.09;5058922;28;4160;-64
2022/06/27 11:17:44;;;;;;;;;;;;;;;24.14;67.56;100735.50;5058848;28;5526;-64
2022/06/27 11:20:15;;;;;;;;;;;;;;;24.15;67.74;100736.97;5059772;28;4127;-64
2022/06/27 11:23:01;;;;;;;;;;;;;;;24.15;67.75;100747.81;5058835;28;5552;-64
2022/06/27 11:25:28;;;;;;;;;;;;;;;24.15;67.52;100747.81;5059546;28;5393;-64
2022/06/27 11:27:58;;;;;;;;;;;;;;;24.15;67.54;100745.66;5058353;28;4239;-64
2022/06/27 11:33:18;;;;;;;;;;;;;;;24.17;67.43;100757.28;5057649;28;4202;-64
2022/06/27 11:35:47;;;;;;;;;;;;;;;24.18;67.38;100758.03;5055420;28;4223;-64
2022/06/27 11:38:26;;;;;;;;;;;;;;;24.19;67.47;100739.22;5059075;28;4294;-64
2022/06/27 11:40:57;;;;;;;;;;;;;;;24.19;67.51;100742.88;5058079;28;4395;-64
2022/06/27 11:43:44;;;;;;;;;;;;;;;24.14;67.57;100741.28;5058871;28;4200;-64
2022/06/27 11:46:22;;;;;;;;;;;;;;;24.19;67.30;100763.13;5057250;28;4161;-64
2022/06/27 11:49:16;;;;;;;;;;;;;;;24.20;67.42;100753.03;5058487;28;4154;-64
2022/06/27 11:51:43;;;;;;;;;;;;;;;24.21;67.33;100751.63;5055623;28;4152;-64
2022/06/27 11:54:14;;;;;;;;;;;;;;;24.20;67.34;100743.63;5058632;28;4229;-64
2022/06/27 11:56:41;;;;;;;;;;;;;;;24.21;67.43;100737.16;5056967;28;4223;-64
2022/06/27 11:59:08;;;;;;;;;;;;;;;24.23;67.44;100743.00;5058566;28;4181;-64
2022/06/27 12:01:53;;;;;;;;;;;;;;;24.22;67.14;100744.41;5057755;28;4141;-62
2022/06/27 12:04:20;;;;;;;;;;;;;;;24.23;67.11;100743.00;5053958;28;5356;-63
2022/06/27 12:06:52;;;;;;;;;;;;;;;24.25;66.86;100736.53;5057426;28;4228;-64
2022/06/27 12:09:19;;;;;;;;;;;;;;;24.25;66.99;100728.56;5055394;28;4204;-66
2022/06/27 12:11:56;;;;;;;;;;;;;;;24.28;66.87;100717.06;5052813;28;4242;-67
2022/06/27 12:14:23;;;;;;;;;;;;;;;24.29;66.45;100721.44;5055425;28;5408;-65
2022/06/27 12:16:50;;;;;;;;;;;;;;;24.29;66.45;100721.44;5056434;28;4266;-65
2022/06/27 12:19:24;;;;;;;;;;;;;;;24.28;66.33;100717.81;5055419;28;4190;-68
2022/06/27 12:21:50;;;;;;;;;;;;;;;24.29;66.30;100721.44;5055678;28;4333;-66
2022/06/27 12:24:17;;;;;;;;;;;;;;;24.29;66.24;100712.75;5056986;28;5325;-67
2022/06/27 12:26:43;;;;;;;;;;;;;;;24.30;66.41;100711.34;5056520;28;4249;-66
2022/06/27 12:29:10;;;;;;;;;;;;;;;24.30;66.34;100711.34;5054757;28;4229;-65
2022/06/27 12:31:36;;;;;;;;;;;;;;;24.33;66.28;100715.78;5053569;28;4269;-65
2022/06/27 12:34:03;;;;;;;;;;;;;;;24.32;66.35;100714.28;5055723;28;4060;-62
2022/06/27 12:36:31;;;;;;;;;;;;;;;24.34;66.29;100717.97;5054501;28;5266;-65
2022/06/27 12:38:58;;;;;;;;;;;;;;;24.34;66.41;100708.56;5053491;28;4321;-64
2022/06/27 12:41:24;;;;;;;;;;;;;;;24.34;66.45;100706.41;5055484;28;5219;-66
2022/06/27 12:43:51;;;;;;;;;;;;;;;24.36;66.26;100711.50;5055965;28;4326;-60
2022/06/27 12:46:17;;;;;;;;;;;;;;;24.42;66.07;100705.91;5053024;28;5477;-61
2022/06/27 12:48:44;;;;;;;;;;;;;;;24.44;66.35;100714.59;5055706;28;4262;-64
2022/06/27 12:51:10;;;;;;;;;;;;;;;24.42;66.29;100720.38;5054969;28;4263;-61
2022/06/27 12:53:36;;;;;;;;;;;;;;;24.43;66.23;100716.03;5049263;28;4207;-62
2022/06/27 12:56:03;;;;;;;;;;;;;;;24.44;66.39;100709.59;5051066;28;5308;-63
2022/06/27 12:58:30;;;;;;;;;;;;;;;24.45;66.63;100716.09;5054439;28;4142;-62
2022/06/27 13:00:57;;;;;;;;;;;;;;;24.46;66.69;100717.56;5056189;28;4243;-64
2022/06/27 13:03:23;;;;;;;;;;;;;;;24.50;66.56;100717.72;5055514;28;5294;-66
2022/06/27 13:05:49;;;;;;;;;;;;;;;24.46;66.48;100721.22;5055272;28;5331;-61